sensor_id;sensor_type;location;lat;lon;timestamp;temperature;humidity
54126;DHT22;40360;52.992;6.796;2023-12-29T00:00:09;10.10;99.90
54126;DHT22;40360;52.992;6.796;2023-12-29T00:02:35;10.20;99.90
54126;DHT22;40360;52.992;6.796;2023-12-29T00:05:00;10.20;99.90
54126;DHT22;40360;52.992;6.796;2023-12-29T00:07:26;10.20;99.90
54126;DHT22;40360;52.992;6.796;2023-12-29T00:09:52;10.30;99.90
54126;DHT22;40360;52.992;6.796;2023-12-29T00:12:18;10.30;99.90
54126;DHT22;40360;52.992;6.796;2023-12-29T00:14:43;10.40;99.90
54126;DHT22;40360;52.992;6.796;2023-12-29T00:17:10;10.40;99.90
54126;DHT22;40360;52.992;6.796;2023-12-29T00:19:35;10.40;99.90
54126;DHT22;40360;52.992;6.796;2023-12-29T00:22:02;10.30;99.90
54126;DHT22;40360;52.992;6.796;2023-12-29T00:24:29;10.40;99.90
54126;DHT22;40360;52.992;6.796;2023-12-29T00:26:57;10.40;99.90
54126;DHT22;40360;52.992;6.796;2023-12-29T00:29:24;10.40;99.90
54126;DHT22;40360;52.992;6.796;2023-12-29T00:31:50;10.40;99.90
54126;DHT22;40360;52.992;6.796;2023-12-29T00:34:16;10.30;99.90
54126;DHT22;40360;52.992;6.796;2023-12-29T00:36:42;10.30;99.90
54126;DHT22;40360;52.992;6.796;2023-12-29T00:39:07;10.40;99.90
54126;DHT22;40360;52.992;6.796;2023-12-29T00:41:33;10.40;99.90
54126;DHT22;40360;52.992;6.796;2023-12-29T00:44:00;10.40;99.90
54126;DHT22;40360;52.992;6.796;2023-12-29T00:46:26;10.30;99.90
54126;DHT22;40360;52.992;6.796;2023-12-29T00:48:52;10.30;99.90
54126;DHT22;40360;52.992;6.796;2023-12-29T00:51:17;10.30;99.90
54126;DHT22;40360;52.992;6.796;2023-12-29T00:53:43;10.30;99.90
54126;DHT22;40360;52.992;6.796;2023-12-29T00:56:10;10.20;99.90
54126;DHT22;40360;52.992;6.796;2023-12-29T00:58:37;10.20;99.90
54126;DHT22;40360;52.992;6.796;2023-12-29T01:01:02;10.20;99.90
54126;DHT22;40360;52.992;6.796;2023-12-29T01:03:28;10.10;99.90
54126;DHT22;40360;52.992;6.796;2023-12-29T01:05:54;10.10;99.90
54126;DHT22;40360;52.992;6.796;2023-12-29T01:08:20;10.00;99.90
54126;DHT22;40360;52.992;6.796;2023-12-29T01:10:45;10.00;99.90
54126;DHT22;40360;52.992;6.796;2023-12-29T01:13:11;10.00;99.90
54126;DHT22;40360;52.992;6.796;2023-12-29T01:15:37;9.90;99.90
54126;DHT22;40360;52.992;6.796;2023-12-29T01:18:03;9.90;99.90
54126;DHT22;40360;52.992;6.796;2023-12-29T01:20:28;9.90;99.90
54126;DHT22;40360;52.992;6.796;2023-12-29T01:22:54;9.80;99.90
54126;DHT22;40360;52.992;6.796;2023-12-29T01:25:20;9.80;99.90
54126;DHT22;40360;52.992;6.796;2023-12-29T01:27:46;9.80;99.90
54126;DHT22;40360;52.992;6.796;2023-12-29T01:30:11;9.70;99.90
54126;DHT22;40360;52.992;6.796;2023-12-29T01:32:37;9.80;99.90
54126;DHT22;40360;52.992;6.796;2023-12-29T01:35:03;9.80;99.90
54126;DHT22;40360;52.992;6.796;2023-12-29T01:37:29;9.80;99.90
54126;DHT22;40360;52.992;6.796;2023-12-29T01:39:55;9.80;99.90
54126;DHT22;40360;52.992;6.796;2023-12-29T01:42:21;9.80;99.90
54126;DHT22;40360;52.992;6.796;2023-12-29T01:44:48;9.90;99.90
54126;DHT22;40360;52.992;6.796;2023-12-29T01:47:18;10.00;99.90
54126;DHT22;40360;52.992;6.796;2023-12-29T01:49:48;10.00;99.90
54126;DHT22;40360;52.992;6.796;2023-12-29T01:52:15;10.00;99.90
54126;DHT22;40360;52.992;6.796;2023-12-29T01:54:41;10.00;99.90
54126;DHT22;40360;52.992;6.796;2023-12-29T01:57:08;9.90;99.90
54126;DHT22;40360;52.992;6.796;2023-12-29T01:59:35;9.90;99.90
54126;DHT22;40360;52.992;6.796;2023-12-29T02:02:02;10.00;99.90
54126;DHT22;40360;52.992;6.796;2023-12-29T02:04:28;10.00;99.90
54126;DHT22;40360;52.992;6.796;2023-12-29T02:06:54;10.00;99.90
54126;DHT22;40360;52.992;6.796;2023-12-29T02:09:20;10.00;99.90
54126;DHT22;40360;52.992;6.796;2023-12-29T02:11:47;9.90;99.90
54126;DHT22;40360;52.992;6.796;2023-12-29T02:14:14;9.80;99.90
54126;DHT22;40360;52.992;6.796;2023-12-29T02:17:05;9.70;99.90
54126;DHT22;40360;52.992;6.796;2023-12-29T02:19:43;9.60;99.90
54126;DHT22;40360;52.992;6.796;2023-12-29T02:22:10;9.50;99.90
54126;DHT22;40360;52.992;6.796;2023-12-29T02:24:36;9.50;99.90
54126;DHT22;40360;52.992;6.796;2023-12-29T02:29:35;9.50;99.90
54126;DHT22;40360;52.992;6.796;2023-12-29T02:32:06;9.50;99.90
54126;DHT22;40360;52.992;6.796;2023-12-29T02:34:36;9.60;99.90
54126;DHT22;40360;52.992;6.796;2023-12-29T02:37:04;9.70;99.90
54126;DHT22;40360;52.992;6.796;2023-12-29T02:39:30;9.70;99.90
54126;DHT22;40360;52.992;6.796;2023-12-29T02:41:56;9.80;99.90
54126;DHT22;40360;52.992;6.796;2023-12-29T02:44:22;9.80;99.90
54126;DHT22;40360;52.992;6.796;2023-12-29T02:46:48;9.80;99.90
54126;DHT22;40360;52.992;6.796;2023-12-29T02:49:14;9.80;99.90
54126;DHT22;40360;52.992;6.796;2023-12-29T02:51:39;9.70;99.90
54126;DHT22;40360;52.992;6.796;2023-12-29T02:54:05;9.70;99.90
54126;DHT22;40360;52.992;6.796;2023-12-29T02:56:33;9.70;99.90
54126;DHT22;40360;52.992;6.796;2023-12-29T02:58:58;9.70;99.90
54126;DHT22;40360;52.992;6.796;2023-12-29T03:01:24;9.80;99.90
54126;DHT22;40360;52.992;6.796;2023-12-29T03:03:50;9.80;99.90
54126;DHT22;40360;52.992;6.796;2023-12-29T03:06:15;9.70;99.90
54126;DHT22;40360;52.992;6.796;2023-12-29T03:08:41;9.70;99.90
54126;DHT22;40360;52.992;6.796;2023-12-29T03:11:07;9.70;99.90
54126;DHT22;40360;52.992;6.796;2023-12-29T03:13:33;9.70;99.90
54126;DHT22;40360;52.992;6.796;2023-12-29T03:15:59;9.60;99.90
54126;DHT22;40360;52.992;6.796;2023-12-29T03:18:25;9.60;99.90
54126;DHT22;40360;52.992;6.796;2023-12-29T03:20:50;9.60;99.90
54126;DHT22;40360;52.992;6.796;2023-12-29T03:23:16;9.60;99.90
54126;DHT22;40360;52.992;6.796;2023-12-29T03:25:42;9.50;99.90
54126;DHT22;40360;52.992;6.796;2023-12-29T03:28:07;9.50;99.90
54126;DHT22;40360;52.992;6.796;2023-12-29T03:30:33;9.40;99.90
54126;DHT22;40360;52.992;6.796;2023-12-29T03:32:59;9.60;99.90
54126;DHT22;40360;52.992;6.796;2023-12-29T03:35:24;9.70;99.90
54126;DHT22;40360;52.992;6.796;2023-12-29T03:37:50;9.70;99.90
54126;DHT22;40360;52.992;6.796;2023-12-29T03:40:16;9.70;99.90
54126;DHT22;40360;52.992;6.796;2023-12-29T03:42:42;9.80;99.90
54126;DHT22;40360;52.992;6.796;2023-12-29T03:45:08;9.80;99.90
54126;DHT22;40360;52.992;6.796;2023-12-29T03:47:34;9.80;99.90
54126;DHT22;40360;52.992;6.796;2023-12-29T03:50:01;9.80;99.90
54126;DHT22;40360;52.992;6.796;2023-12-29T03:52:27;9.80;99.90
54126;DHT22;40360;52.992;6.796;2023-12-29T03:54:52;9.70;99.90
54126;DHT22;40360;52.992;6.796;2023-12-29T03:57:18;9.70;99.90
54126;DHT22;40360;52.992;6.796;2023-12-29T03:59:44;9.70;99.90
54126;DHT22;40360;52.992;6.796;2023-12-29T04:02:10;9.50;99.90
54126;DHT22;40360;52.992;6.796;2023-12-29T04:04:38;9.30;99.90
54126;DHT22;40360;52.992;6.796;2023-12-29T04:07:04;9.10;99.90
54126;DHT22;40360;52.992;6.796;2023-12-29T04:09:30;9.20;99.90
54126;DHT22;40360;52.992;6.796;2023-12-29T04:11:56;9.20;99.90
54126;DHT22;40360;52.992;6.796;2023-12-29T04:14:22;9.20;99.90
54126;DHT22;40360;52.992;6.796;2023-12-29T04:16:47;9.20;99.90
54126;DHT22;40360;52.992;6.796;2023-12-29T04:19:13;9.20;99.90
54126;DHT22;40360;52.992;6.796;2023-12-29T04:21:39;9.20;99.90
54126;DHT22;40360;52.992;6.796;2023-12-29T04:24:05;9.30;99.90
54126;DHT22;40360;52.992;6.796;2023-12-29T04:26:35;9.20;99.90
54126;DHT22;40360;52.992;6.796;2023-12-29T04:29:01;9.20;99.90
54126;DHT22;40360;52.992;6.796;2023-12-29T04:31:27;9.20;99.90
54126;DHT22;40360;52.992;6.796;2023-12-29T04:33:53;9.30;99.90
54126;DHT22;40360;52.992;6.796;2023-12-29T04:36:18;9.30;99.90
54126;DHT22;40360;52.992;6.796;2023-12-29T04:38:44;9.30;99.90
54126;DHT22;40360;52.992;6.796;2023-12-29T04:41:12;9.30;99.90
54126;DHT22;40360;52.992;6.796;2023-12-29T04:43:38;9.30;99.90
54126;DHT22;40360;52.992;6.796;2023-12-29T04:46:04;9.30;99.90
54126;DHT22;40360;52.992;6.796;2023-12-29T04:48:30;9.30;99.90
54126;DHT22;40360;52.992;6.796;2023-12-29T04:50:56;9.30;99.90
54126;DHT22;40360;52.992;6.796;2023-12-29T04:53:21;9.30;99.90
54126;DHT22;40360;52.992;6.796;2023-12-29T04:55:47;9.30;99.90
54126;DHT22;40360;52.992;6.796;2023-12-29T04:58:13;9.30;99.90
54126;DHT22;40360;52.992;6.796;2023-12-29T05:00:38;9.30;99.90
54126;DHT22;40360;52.992;6.796;2023-12-29T05:03:04;9.30;99.90
54126;DHT22;40360;52.992;6.796;2023-12-29T05:05:30;9.30;99.90
54126;DHT22;40360;52.992;6.796;2023-12-29T05:07:55;9.40;99.90
54126;DHT22;40360;52.992;6.796;2023-12-29T05:10:21;9.40;99.90
54126;DHT22;40360;52.992;6.796;2023-12-29T05:12:47;9.40;99.90
54126;DHT22;40360;52.992;6.796;2023-12-29T05:15:13;9.40;99.90
54126;DHT22;40360;52.992;6.796;2023-12-29T05:17:39;9.50;99.90
54126;DHT22;40360;52.992;6.796;2023-12-29T05:20:07;9.50;99.90
54126;DHT22;40360;52.992;6.796;2023-12-29T05:22:32;9.50;99.90
54126;DHT22;40360;52.992;6.796;2023-12-29T05:24:58;9.50;99.90
54126;DHT22;40360;52.992;6.796;2023-12-29T05:27:26;9.60;99.90
54126;DHT22;40360;52.992;6.796;2023-12-29T05:29:52;9.60;99.90
54126;DHT22;40360;52.992;6.796;2023-12-29T05:32:18;9.50;99.90
54126;DHT22;40360;52.992;6.796;2023-12-29T05:34:43;9.50;99.90
54126;DHT22;40360;52.992;6.796;2023-12-29T05:37:09;9.60;99.90
54126;DHT22;40360;52.992;6.796;2023-12-29T05:39:35;9.60;99.90
54126;DHT22;40360;52.992;6.796;2023-12-29T05:42:00;9.60;99.90
54126;DHT22;40360;52.992;6.796;2023-12-29T05:44:26;9.60;99.90
54126;DHT22;40360;52.992;6.796;2023-12-29T05:46:52;9.60;99.90
54126;DHT22;40360;52.992;6.796;2023-12-29T05:49:24;9.60;99.90
54126;DHT22;40360;52.992;6.796;2023-12-29T05:51:50;9.60;99.90
54126;DHT22;40360;52.992;6.796;2023-12-29T05:54:16;9.60;99.90
54126;DHT22;40360;52.992;6.796;2023-12-29T05:56:43;9.60;99.90
54126;DHT22;40360;52.992;6.796;2023-12-29T05:59:09;9.60;99.90
54126;DHT22;40360;52.992;6.796;2023-12-29T06:01:34;9.60;99.90
54126;DHT22;40360;52.992;6.796;2023-12-29T06:04:00;9.60;99.90
54126;DHT22;40360;52.992;6.796;2023-12-29T06:06:26;9.60;99.90
54126;DHT22;40360;52.992;6.796;2023-12-29T06:08:52;9.60;99.90
54126;DHT22;40360;52.992;6.796;2023-12-29T06:11:17;9.60;99.90
54126;DHT22;40360;52.992;6.796;2023-12-29T06:13:43;9.60;99.90
54126;DHT22;40360;52.992;6.796;2023-12-29T06:16:09;9.50;99.90
54126;DHT22;40360;52.992;6.796;2023-12-29T06:18:35;9.50;99.90
54126;DHT22;40360;52.992;6.796;2023-12-29T06:21:02;9.50;99.90
54126;DHT22;40360;52.992;6.796;2023-12-29T06:23:28;9.50;99.90
54126;DHT22;40360;52.992;6.796;2023-12-29T06:25:54;9.50;99.90
54126;DHT22;40360;52.992;6.796;2023-12-29T06:28:20;9.50;99.90
54126;DHT22;40360;52.992;6.796;2023-12-29T06:30:45;9.50;99.90
54126;DHT22;40360;52.992;6.796;2023-12-29T06:33:11;9.50;99.90
54126;DHT22;40360;52.992;6.796;2023-12-29T06:35:37;9.50;99.90
54126;DHT22;40360;52.992;6.796;2023-12-29T06:38:04;9.60;99.90
54126;DHT22;40360;52.992;6.796;2023-12-29T06:40:30;9.50;99.90
54126;DHT22;40360;52.992;6.796;2023-12-29T06:42:56;9.60;99.90
54126;DHT22;40360;52.992;6.796;2023-12-29T06:45:21;9.60;99.90
54126;DHT22;40360;52.992;6.796;2023-12-29T06:47:47;9.60;99.90
54126;DHT22;40360;52.992;6.796;2023-12-29T06:50:13;9.60;99.90
54126;DHT22;40360;52.992;6.796;2023-12-29T06:52:39;9.60;99.90
54126;DHT22;40360;52.992;6.796;2023-12-29T06:55:06;9.50;99.90
54126;DHT22;40360;52.992;6.796;2023-12-29T06:57:32;9.50;99.90
54126;DHT22;40360;52.992;6.796;2023-12-29T06:59:58;9.50;99.90
54126;DHT22;40360;52.992;6.796;2023-12-29T07:02:23;9.50;99.90
54126;DHT22;40360;52.992;6.796;2023-12-29T07:04:49;9.50;99.90
54126;DHT22;40360;52.992;6.796;2023-12-29T07:22:59;9.40;99.90
54126;DHT22;40360;52.992;6.796;2023-12-29T07:25:26;9.40;99.90
54126;DHT22;40360;52.992;6.796;2023-12-29T07:27:52;9.40;99.90
54126;DHT22;40360;52.992;6.796;2023-12-29T07:30:18;9.40;99.90
54126;DHT22;40360;52.992;6.796;2023-12-29T07:32:44;9.40;99.90
54126;DHT22;40360;52.992;6.796;2023-12-29T07:35:10;9.40;99.90
54126;DHT22;40360;52.992;6.796;2023-12-29T07:37:36;9.40;99.90
54126;DHT22;40360;52.992;6.796;2023-12-29T07:40:01;9.40;99.90
54126;DHT22;40360;52.992;6.796;2023-12-29T07:42:29;9.40;99.90
54126;DHT22;40360;52.992;6.796;2023-12-29T07:44:55;9.40;99.90
54126;DHT22;40360;52.992;6.796;2023-12-29T07:47:22;9.40;99.90
54126;DHT22;40360;52.992;6.796;2023-12-29T07:49:48;9.40;99.90
54126;DHT22;40360;52.992;6.796;2023-12-29T07:52:13;9.40;99.90
54126;DHT22;40360;52.992;6.796;2023-12-29T07:54:39;9.40;99.90
54126;DHT22;40360;52.992;6.796;2023-12-29T07:57:05;9.40;99.90
54126;DHT22;40360;52.992;6.796;2023-12-29T07:59:31;9.30;99.90
54126;DHT22;40360;52.992;6.796;2023-12-29T08:01:56;9.30;99.90
54126;DHT22;40360;52.992;6.796;2023-12-29T08:04:23;9.20;99.90
54126;DHT22;40360;52.992;6.796;2023-12-29T08:06:49;9.20;99.90
54126;DHT22;40360;52.992;6.796;2023-12-29T08:09:15;9.20;99.90
54126;DHT22;40360;52.992;6.796;2023-12-29T08:11:41;9.20;99.90
54126;DHT22;40360;52.992;6.796;2023-12-29T08:14:08;9.20;99.90
54126;DHT22;40360;52.992;6.796;2023-12-29T08:16:40;9.30;99.90
54126;DHT22;40360;52.992;6.796;2023-12-29T08:19:07;9.40;99.90
54126;DHT22;40360;52.992;6.796;2023-12-29T08:21:33;9.40;99.90
54126;DHT22;40360;52.992;6.796;2023-12-29T08:23:59;9.40;99.90
54126;DHT22;40360;52.992;6.796;2023-12-29T08:26:25;9.40;99.90
54126;DHT22;40360;52.992;6.796;2023-12-29T08:28:51;9.40;99.90
54126;DHT22;40360;52.992;6.796;2023-12-29T08:31:19;9.50;99.90
54126;DHT22;40360;52.992;6.796;2023-12-29T08:33:45;9.50;99.90
54126;DHT22;40360;52.992;6.796;2023-12-29T08:36:12;9.50;99.90
54126;DHT22;40360;52.992;6.796;2023-12-29T08:38:38;9.50;99.90
54126;DHT22;40360;52.992;6.796;2023-12-29T08:41:04;9.50;99.90
54126;DHT22;40360;52.992;6.796;2023-12-29T08:43:31;9.50;99.90
54126;DHT22;40360;52.992;6.796;2023-12-29T08:45:57;9.60;99.90
54126;DHT22;40360;52.992;6.796;2023-12-29T08:48:25;9.50;99.90
54126;DHT22;40360;52.992;6.796;2023-12-29T08:50:51;9.50;99.90
54126;DHT22;40360;52.992;6.796;2023-12-29T08:53:17;9.50;99.90
54126;DHT22;40360;52.992;6.796;2023-12-29T08:55:42;9.50;99.90
54126;DHT22;40360;52.992;6.796;2023-12-29T08:58:08;9.40;99.90
54126;DHT22;40360;52.992;6.796;2023-12-29T09:00:34;9.40;99.90
54126;DHT22;40360;52.992;6.796;2023-12-29T09:02:59;9.50;99.90
54126;DHT22;40360;52.992;6.796;2023-12-29T09:05:25;9.50;99.90
54126;DHT22;40360;52.992;6.796;2023-12-29T09:07:51;9.50;99.90
54126;DHT22;40360;52.992;6.796;2023-12-29T09:10:17;9.40;99.90
54126;DHT22;40360;52.992;6.796;2023-12-29T09:12:43;9.40;99.90
54126;DHT22;40360;52.992;6.796;2023-12-29T09:15:09;9.30;99.90
54126;DHT22;40360;52.992;6.796;2023-12-29T09:17:35;9.40;99.90
54126;DHT22;40360;52.992;6.796;2023-12-29T09:20:01;9.40;99.90
54126;DHT22;40360;52.992;6.796;2023-12-29T09:22:27;9.30;99.90
54126;DHT22;40360;52.992;6.796;2023-12-29T09:24:56;9.30;99.90
54126;DHT22;40360;52.992;6.796;2023-12-29T09:27:22;9.20;99.90
54126;DHT22;40360;52.992;6.796;2023-12-29T09:29:48;9.10;99.90
54126;DHT22;40360;52.992;6.796;2023-12-29T09:32:13;9.00;99.90
54126;DHT22;40360;52.992;6.796;2023-12-29T09:34:39;9.00;99.90
54126;DHT22;40360;52.992;6.796;2023-12-29T09:37:05;9.00;99.90
54126;DHT22;40360;52.992;6.796;2023-12-29T09:39:30;9.00;99.90
54126;DHT22;40360;52.992;6.796;2023-12-29T09:42:01;9.00;99.90
54126;DHT22;40360;52.992;6.796;2023-12-29T09:44:31;9.10;99.90
54126;DHT22;40360;52.992;6.796;2023-12-29T09:47:01;9.10;99.90
54126;DHT22;40360;52.992;6.796;2023-12-29T09:49:35;9.20;99.90
54126;DHT22;40360;52.992;6.796;2023-12-29T09:52:03;9.20;99.90
54126;DHT22;40360;52.992;6.796;2023-12-29T09:54:29;9.30;99.90
54126;DHT22;40360;52.992;6.796;2023-12-29T09:56:56;9.40;99.90
54126;DHT22;40360;52.992;6.796;2023-12-29T09:59:22;9.40;99.90
54126;DHT22;40360;52.992;6.796;2023-12-29T10:01:50;9.40;99.90
54126;DHT22;40360;52.992;6.796;2023-12-29T10:04:17;9.50;99.90
54126;DHT22;40360;52.992;6.796;2023-12-29T10:06:44;9.50;99.90
54126;DHT22;40360;52.992;6.796;2023-12-29T10:09:12;9.50;99.90
54126;DHT22;40360;52.992;6.796;2023-12-29T10:11:40;9.60;99.90
54126;DHT22;40360;52.992;6.796;2023-12-29T10:14:23;9.60;99.90
54126;DHT22;40360;52.992;6.796;2023-12-29T10:17:09;9.60;99.90
54126;DHT22;40360;52.992;6.796;2023-12-29T10:19:46;9.70;99.90
54126;DHT22;40360;52.992;6.796;2023-12-29T10:22:21;9.70;99.90
54126;DHT22;40360;52.992;6.796;2023-12-29T10:24:52;9.70;99.90
54126;DHT22;40360;52.992;6.796;2023-12-29T10:27:18;9.70;99.90
54126;DHT22;40360;52.992;6.796;2023-12-29T10:29:44;9.70;99.90
54126;DHT22;40360;52.992;6.796;2023-12-29T10:32:09;9.70;99.90
54126;DHT22;40360;52.992;6.796;2023-12-29T10:34:35;9.70;99.90
54126;DHT22;40360;52.992;6.796;2023-12-29T10:37:02;9.80;99.90
54126;DHT22;40360;52.992;6.796;2023-12-29T10:39:39;9.80;99.90
54126;DHT22;40360;52.992;6.796;2023-12-29T10:42:05;9.70;99.90
54126;DHT22;40360;52.992;6.796;2023-12-29T10:44:35;9.80;99.90
54126;DHT22;40360;52.992;6.796;2023-12-29T10:47:12;9.80;99.90
54126;DHT22;40360;52.992;6.796;2023-12-29T10:49:41;9.80;99.90
54126;DHT22;40360;52.992;6.796;2023-12-29T10:52:14;9.80;99.90
54126;DHT22;40360;52.992;6.796;2023-12-29T10:54:41;9.90;99.90
54126;DHT22;40360;52.992;6.796;2023-12-29T10:57:08;9.80;99.90
54126;DHT22;40360;52.992;6.796;2023-12-29T10:59:35;9.80;99.90
54126;DHT22;40360;52.992;6.796;2023-12-29T11:02:03;9.90;99.90
54126;DHT22;40360;52.992;6.796;2023-12-29T11:04:29;9.90;99.90
54126;DHT22;40360;52.992;6.796;2023-12-29T11:06:55;10.40;99.90
54126;DHT22;40360;52.992;6.796;2023-12-29T11:09:31;10.00;99.90
54126;DHT22;40360;52.992;6.796;2023-12-29T11:12:03;9.90;99.90
54126;DHT22;40360;52.992;6.796;2023-12-29T11:14:30;10.00;99.90
54126;DHT22;40360;52.992;6.796;2023-12-29T11:16:57;10.00;99.90
54126;DHT22;40360;52.992;6.796;2023-12-29T11:19:24;9.90;99.90
54126;DHT22;40360;52.992;6.796;2023-12-29T11:21:53;10.00;99.90
54126;DHT22;40360;52.992;6.796;2023-12-29T11:24:20;10.00;99.90
54126;DHT22;40360;52.992;6.796;2023-12-29T11:26:46;10.00;99.90
54126;DHT22;40360;52.992;6.796;2023-12-29T11:29:15;10.00;99.90
54126;DHT22;40360;52.992;6.796;2023-12-29T11:31:42;10.00;99.90
54126;DHT22;40360;52.992;6.796;2023-12-29T11:34:20;10.00;99.90
54126;DHT22;40360;52.992;6.796;2023-12-29T11:36:50;10.00;99.90
54126;DHT22;40360;52.992;6.796;2023-12-29T11:42:13;9.90;99.90
54126;DHT22;40360;52.992;6.796;2023-12-29T11:44:39;9.90;99.90
54126;DHT22;40360;52.992;6.796;2023-12-29T11:47:05;9.90;99.90
54126;DHT22;40360;52.992;6.796;2023-12-29T11:50:01;9.90;99.90
54126;DHT22;40360;52.992;6.796;2023-12-29T11:52:38;9.80;99.90
54126;DHT22;40360;52.992;6.796;2023-12-29T11:55:12;9.80;99.90
54126;DHT22;40360;52.992;6.796;2023-12-29T11:57:39;9.80;99.90
54126;DHT22;40360;52.992;6.796;2023-12-29T12:00:09;9.80;99.90
54126;DHT22;40360;52.992;6.796;2023-12-29T12:02:35;9.80;99.90
54126;DHT22;40360;52.992;6.796;2023-12-29T12:05:01;9.80;99.90
54126;DHT22;40360;52.992;6.796;2023-12-29T12:12:58;9.70;99.90
54126;DHT22;40360;52.992;6.796;2023-12-29T12:17:58;9.70;99.90
54126;DHT22;40360;52.992;6.796;2023-12-29T12:20:24;9.70;99.90
54126;DHT22;40360;52.992;6.796;2023-12-29T12:22:58;9.70;99.90
54126;DHT22;40360;52.992;6.796;2023-12-29T12:25:28;9.70;99.90
54126;DHT22;40360;52.992;6.796;2023-12-29T12:27:56;9.70;99.90
54126;DHT22;40360;52.992;6.796;2023-12-29T12:30:23;9.70;99.90
54126;DHT22;40360;52.992;6.796;2023-12-29T12:32:59;9.70;99.90
54126;DHT22;40360;52.992;6.796;2023-12-29T12:35:25;9.70;99.90
54126;DHT22;40360;52.992;6.796;2023-12-29T12:38:13;9.60;99.90
54126;DHT22;40360;52.992;6.796;2023-12-29T12:40:39;9.60;99.90
54126;DHT22;40360;52.992;6.796;2023-12-29T12:43:05;9.60;99.90
54126;DHT22;40360;52.992;6.796;2023-12-29T12:45:41;9.60;99.90
54126;DHT22;40360;52.992;6.796;2023-12-29T12:48:23;9.60;99.90
54126;DHT22;40360;52.992;6.796;2023-12-29T12:50:49;9.70;99.90
54126;DHT22;40360;52.992;6.796;2023-12-29T12:53:15;9.60;99.90
54126;DHT22;40360;52.992;6.796;2023-12-29T12:55:50;9.70;99.90
54126;DHT22;40360;52.992;6.796;2023-12-29T12:58:20;9.70;99.90
54126;DHT22;40360;52.992;6.796;2023-12-29T13:00:46;9.70;99.90
54126;DHT22;40360;52.992;6.796;2023-12-29T13:03:14;9.70;99.90
54126;DHT22;40360;52.992;6.796;2023-12-29T13:05:40;9.80;99.90
54126;DHT22;40360;52.992;6.796;2023-12-29T13:08:07;9.80;99.90
54126;DHT22;40360;52.992;6.796;2023-12-29T13:10:33;9.80;99.90
54126;DHT22;40360;52.992;6.796;2023-12-29T13:12:59;9.80;99.90
54126;DHT22;40360;52.992;6.796;2023-12-29T13:15:25;9.90;99.90
54126;DHT22;40360;52.992;6.796;2023-12-29T13:17:53;9.90;99.90
54126;DHT22;40360;52.992;6.796;2023-12-29T13:20:20;9.90;99.90
54126;DHT22;40360;52.992;6.796;2023-12-29T13:22:49;9.80;99.90
54126;DHT22;40360;52.992;6.796;2023-12-29T13:25:24;9.80;99.90
54126;DHT22;40360;52.992;6.796;2023-12-29T13:27:53;9.80;99.90
54126;DHT22;40360;52.992;6.796;2023-12-29T13:30:20;9.80;99.90
54126;DHT22;40360;52.992;6.796;2023-12-29T13:32:47;9.70;99.90
54126;DHT22;40360;52.992;6.796;2023-12-29T13:35:34;9.70;99.90
54126;DHT22;40360;52.992;6.796;2023-12-29T13:38:10;9.80;99.90
54126;DHT22;40360;52.992;6.796;2023-12-29T13:41:00;9.70;99.90
54126;DHT22;40360;52.992;6.796;2023-12-29T13:43:29;9.70;99.90
54126;DHT22;40360;52.992;6.796;2023-12-29T13:45:55;9.60;99.90
54126;DHT22;40360;52.992;6.796;2023-12-29T13:48:22;9.60;99.90
54126;DHT22;40360;52.992;6.796;2023-12-29T13:50:49;9.40;99.90
54126;DHT22;40360;52.992;6.796;2023-12-29T13:53:19;9.40;99.90
54126;DHT22;40360;52.992;6.796;2023-12-29T13:55:45;9.40;99.90
54126;DHT22;40360;52.992;6.796;2023-12-29T13:58:11;9.30;99.90
54126;DHT22;40360;52.992;6.796;2023-12-29T14:00:40;9.20;99.90
54126;DHT22;40360;52.992;6.796;2023-12-29T14:03:10;9.20;99.90
54126;DHT22;40360;52.992;6.796;2023-12-29T14:05:55;9.20;99.90
54126;DHT22;40360;52.992;6.796;2023-12-29T14:08:41;9.20;99.90
54126;DHT22;40360;52.992;6.796;2023-12-29T14:11:10;9.20;99.90
54126;DHT22;40360;52.992;6.796;2023-12-29T14:13:46;9.10;99.90
54126;DHT22;40360;52.992;6.796;2023-12-29T14:16:14;9.10;99.90
54126;DHT22;40360;52.992;6.796;2023-12-29T14:18:51;9.10;99.90
54126;DHT22;40360;52.992;6.796;2023-12-29T14:21:27;9.10;99.90
54126;DHT22;40360;52.992;6.796;2023-12-29T14:24:09;9.10;99.90
54126;DHT22;40360;52.992;6.796;2023-12-29T14:26:37;9.00;99.90
54126;DHT22;40360;52.992;6.796;2023-12-29T14:29:08;8.90;99.90
54126;DHT22;40360;52.992;6.796;2023-12-29T14:31:41;8.90;99.90
54126;DHT22;40360;52.992;6.796;2023-12-29T14:34:08;8.90;99.90
54126;DHT22;40360;52.992;6.796;2023-12-29T14:36:35;8.90;99.90
54126;DHT22;40360;52.992;6.796;2023-12-29T14:39:02;8.80;99.90
54126;DHT22;40360;52.992;6.796;2023-12-29T14:41:29;8.80;99.90
54126;DHT22;40360;52.992;6.796;2023-12-29T14:43:55;8.80;99.90
54126;DHT22;40360;52.992;6.796;2023-12-29T14:46:21;8.80;99.90
54126;DHT22;40360;52.992;6.796;2023-12-29T14:48:47;8.80;99.90
54126;DHT22;40360;52.992;6.796;2023-12-29T14:51:13;8.80;99.90
54126;DHT22;40360;52.992;6.796;2023-12-29T14:53:39;8.70;99.90
54126;DHT22;40360;52.992;6.796;2023-12-29T14:56:06;8.70;99.90
54126;DHT22;40360;52.992;6.796;2023-12-29T14:58:31;8.70;99.90
54126;DHT22;40360;52.992;6.796;2023-12-29T15:00:58;8.70;99.90
54126;DHT22;40360;52.992;6.796;2023-12-29T15:03:24;8.70;99.90
54126;DHT22;40360;52.992;6.796;2023-12-29T15:05:50;8.70;99.90
54126;DHT22;40360;52.992;6.796;2023-12-29T15:08:16;8.70;99.90
54126;DHT22;40360;52.992;6.796;2023-12-29T15:10:43;8.70;99.90
54126;DHT22;40360;52.992;6.796;2023-12-29T15:13:10;8.70;99.90
54126;DHT22;40360;52.992;6.796;2023-12-29T15:15:36;8.70;99.90
54126;DHT22;40360;52.992;6.796;2023-12-29T15:18:03;8.70;99.90
54126;DHT22;40360;52.992;6.796;2023-12-29T15:20:29;8.80;99.90
54126;DHT22;40360;52.992;6.796;2023-12-29T15:22:55;8.80;99.90
54126;DHT22;40360;52.992;6.796;2023-12-29T15:25:24;8.80;99.90
54126;DHT22;40360;52.992;6.796;2023-12-29T15:27:51;8.80;99.90
54126;DHT22;40360;52.992;6.796;2023-12-29T15:30:18;8.80;99.90
54126;DHT22;40360;52.992;6.796;2023-12-29T15:32:44;8.80;99.90
54126;DHT22;40360;52.992;6.796;2023-12-29T15:35:10;8.80;99.90
54126;DHT22;40360;52.992;6.796;2023-12-29T15:37:36;8.70;99.90
54126;DHT22;40360;52.992;6.796;2023-12-29T15:40:02;8.70;99.90
54126;DHT22;40360;52.992;6.796;2023-12-29T15:42:32;8.70;99.90
54126;DHT22;40360;52.992;6.796;2023-12-29T15:44:58;8.70;99.90
54126;DHT22;40360;52.992;6.796;2023-12-29T15:47:24;8.70;99.90
54126;DHT22;40360;52.992;6.796;2023-12-29T15:49:50;8.60;99.90
54126;DHT22;40360;52.992;6.796;2023-12-29T15:52:16;8.60;99.90
54126;DHT22;40360;52.992;6.796;2023-12-29T15:54:42;8.60;99.90
54126;DHT22;40360;52.992;6.796;2023-12-29T15:57:08;8.60;99.90
54126;DHT22;40360;52.992;6.796;2023-12-29T15:59:35;8.70;99.90
54126;DHT22;40360;52.992;6.796;2023-12-29T16:02:00;8.80;99.90
54126;DHT22;40360;52.992;6.796;2023-12-29T16:04:26;8.80;99.90
54126;DHT22;40360;52.992;6.796;2023-12-29T16:06:56;8.90;99.90
54126;DHT22;40360;52.992;6.796;2023-12-29T16:09:22;8.90;99.90
54126;DHT22;40360;52.992;6.796;2023-12-29T16:11:48;8.90;99.90
54126;DHT22;40360;52.992;6.796;2023-12-29T16:14:20;8.90;99.90